Time;durP1;ratioP1;P1;durP2;ratioP2;P2;SDS_P1;SDS_P2;PMS_P1;PMS_P2;Temp;Humidity;BMP_temperature;BMP_pressure;BME280_temperature;BME280_humidity;BME280_pressure;Samples;Min_cycle;Max_cycle;Signal;HPM_P1;HPM_P2
2022/12/18 00:01:34;;;;;;;22.27;12.55;;;-1.90;64.10;;;;;;5069583;28;20123;-55
2022/12/18 00:04:05;;;;;;;22.23;12.27;;;-1.90;64.20;;;;;;5052673;28;20051;-55
2022/12/18 00:06:35;;;;;;;21.80;12.77;;;-2.00;64.20;;;;;;5064851;28;20521;-54
2022/12/18 00:09:05;;;;;;;20.25;11.55;;;-2.00;64.10;;;;;;5050179;28;20098;-52
2022/12/18 00:11:32;;;;;;;20.70;12.05;;;-2.10;64.10;;;;;;5048563;28;20049;-54
2022/12/18 00:14:01;;;;;;;22.40;12.65;;;-2.10;64.10;;;;;;5052069;28;20041;-50
2022/12/18 00:16:37;;;;;;;21.55;12.07;;;-2.20;64.10;;;;;;5060811;28;20485;-52
2022/12/18 00:19:12;;;;;;;24.80;13.07;;;-2.20;64.20;;;;;;5069680;28;20127;-54
2022/12/18 00:21:42;;;;;;;23.75;12.20;;;-2.20;64.30;;;;;;5057954;28;20095;-53
2022/12/18 00:24:10;;;;;;;21.27;12.30;;;-2.30;64.30;;;;;;5058692;28;20053;-50
2022/12/18 00:26:40;;;;;;;21.67;12.45;;;-2.30;64.30;;;;;;5052205;28;20433;-50
2022/12/18 00:29:16;;;;;;;15.85;9.52;;;-2.30;64.40;;;;;;5051644;28;20056;-49
2022/12/18 00:31:47;;;;;;;22.48;12.10;;;-2.30;64.30;;;;;;5053588;28;20090;-52
2022/12/18 00:34:16;;;;;;;23.52;12.25;;;-2.40;64.30;;;;;;5057087;28;20052;-53
2022/12/18 00:36:47;;;;;;;24.77;13.77;;;-2.30;64.30;;;;;;5047030;28;20068;-54
2022/12/18 00:39:14;;;;;;;19.48;11.88;;;-2.40;64.30;;;;;;5065505;28;20065;-54
2022/12/18 00:44:31;;;;;;;21.77;12.70;;;-2.40;64.40;;;;;;5050889;28;20044;-55
2022/12/18 00:46:58;;;;;;;23.60;12.63;;;-2.50;64.40;;;;;;5050006;28;20079;-55
2022/12/18 00:49:24;;;;;;;20.52;12.55;;;-2.50;64.50;;;;;;5015140;28;20045;-55
2022/12/18 00:51:57;;;;;;;24.92;13.88;;;-2.50;64.50;;;;;;5061549;28;20041;-52
2022/12/18 00:54:30;;;;;;;25.38;14.18;;;-2.50;64.50;;;;;;5043813;28;20039;-53
2022/12/18 00:57:01;;;;;;;21.73;12.45;;;-2.50;64.50;;;;;;5053131;28;20051;-52
2022/12/18 00:59:35;;;;;;;28.08;13.75;;;-2.50;64.60;;;;;;5024103;28;20060;-55
2022/12/18 01:02:04;;;;;;;22.88;12.68;;;-2.50;64.50;;;;;;5059202;28;20056;-52
2022/12/18 01:04:36;;;;;;;22.85;13.95;;;-2.60;64.50;;;;;;5050826;28;20040;-52
2022/12/18 01:07:05;;;;;;;26.88;14.45;;;-2.60;65.20;;;;;;5051888;28;20120;-55
2022/12/18 01:09:36;;;;;;;26.40;15.18;;;-2.60;64.40;;;;;;5036148;28;20068;-53
2022/12/18 01:12:05;;;;;;;24.42;13.00;;;-2.60;64.40;;;;;;5059460;28;20549;-52
2022/12/18 01:14:33;;;;;;;21.90;13.07;;;-2.60;64.40;;;;;;5068784;28;20043;-54
2022/12/18 01:17:02;;;;;;;23.60;13.32;;;-2.60;64.50;;;;;;5045704;28;20128;-52
2022/12/18 01:19:32;;;;;;;23.60;13.35;;;-2.60;64.50;;;;;;5035721;28;20060;-56
2022/12/18 01:22:00;;;;;;;22.15;12.48;;;-2.60;64.40;;;;;;5043261;28;20067;-55
2022/12/18 01:24:26;;;;;;;20.88;12.55;;;-2.60;64.40;;;;;;5031033;28;20040;-55
2022/12/18 01:26:55;;;;;;;23.45;12.13;;;-2.70;64.30;;;;;;5025242;28;20034;-57
2022/12/18 01:29:24;;;;;;;24.05;13.25;;;-2.70;64.30;;;;;;5055801;28;20138;-56
2022/12/18 01:31:54;;;;;;;22.45;13.40;;;-2.70;64.40;;;;;;5061415;28;20071;-57
2022/12/18 01:34:22;;;;;;;25.10;12.82;;;-2.70;64.70;;;;;;5060356;28;20079;-57
2022/12/18 01:36:49;;;;;;;22.58;13.52;;;-2.70;64.30;;;;;;5043683;28;20058;-57
2022/12/18 01:39:15;;;;;;;24.35;13.07;;;-2.70;64.30;;;;;;5039096;28;20061;-57
2022/12/18 01:42:03;;;;;;;25.95;12.18;;;-2.70;64.40;;;;;;5049648;28;20505;-55
2022/12/18 01:45:08;;;;;;;22.42;12.60;;;-2.80;64.30;;;;;;5053068;28;20062;-57
2022/12/18 01:47:50;;;;;;;21.95;11.80;;;-2.80;64.10;;;;;;5041658;28;20041;-57
2022/12/18 01:50:27;;;;;;;20.27;12.07;;;-2.80;64.20;;;;;;5058676;28;20067;-56
2022/12/18 01:53:10;;;;;;;21.70;11.75;;;-2.80;64.20;;;;;;5064554;28;20051;-57
2022/12/18 01:55:42;;;;;;;22.40;11.20;;;-2.80;64.20;;;;;;5021820;28;20506;-54
2022/12/18 01:58:17;;;;;;;21.88;12.05;;;-2.80;64.30;;;;;;5050564;28;20052;-55
2022/12/18 02:00:44;;;;;;;18.55;11.27;;;-2.90;64.30;;;;;;5071121;28;20048;-57
2022/12/18 02:03:14;;;;;;;18.65;10.68;;;-2.90;64.30;;;;;;5040522;28;20250;-51
2022/12/18 02:05:53;;;;;;;20.23;11.88;;;-2.90;64.30;;;;;;5038791;28;20052;-55
2022/12/18 02:08:41;;;;;;;23.13;12.00;;;-2.90;64.30;;;;;;5044005;28;20043;-55
2022/12/18 02:11:30;;;;;;;22.67;11.88;;;-2.90;64.30;;;;;;5035110;28;20055;-52
2022/12/18 02:14:18;;;;;;;21.02;11.60;;;-2.90;64.10;;;;;;5035806;28;20098;-55
2022/12/18 02:17:07;;;;;;;20.83;10.68;;;-2.90;64.20;;;;;;5064491;28;20040;-52
2022/12/18 02:19:57;;;;;;;20.63;11.48;;;-3.00;64.00;;;;;;5054388;28;20044;-55
2022/12/18 02:22:26;;;;;;;22.25;12.20;;;-3.00;64.10;;;;;;5022553;28;20517;-52
2022/12/18 02:25:29;;;;;;;22.52;13.25;;;-3.00;64.10;;;;;;5057253;28;20127;-55
2022/12/18 02:27:58;;;;;;;;;;;-3.00;64.20;;;;;;5033322;28;20420;-54
2022/12/18 02:30:31;;;;;;;18.42;10.43;;;-3.00;64.00;;;;;;5032001;28;19924;-53
2022/12/18 02:33:01;;;;;;;17.92;10.60;;;-3.00;64.10;;;;;;5035793;28;20079;-55
2022/12/18 02:35:32;;;;;;;16.98;10.88;;;-3.10;64.00;;;;;;5063419;28;20115;-55
2022/12/18 02:38:02;;;;;;;20.48;12.15;;;-3.00;64.10;;;;;;5073157;28;20039;-55
2022/12/18 02:40:32;;;;;;;19.92;11.43;;;-3.10;64.20;;;;;;5036995;28;20041;-52
2022/12/18 02:43:08;;;;;;;20.27;11.02;;;-3.10;64.20;;;;;;5028376;28;20076;-55
2022/12/18 02:45:46;;;;;;;18.08;11.07;;;-3.10;64.20;;;;;;5032933;28;20103;-55
2022/12/18 02:48:15;;;;;;;19.90;12.95;;;-3.10;64.10;;;;;;5050971;28;20067;-54
2022/12/18 02:51:08;;;;;;;22.33;11.60;;;-3.10;64.10;;;;;;5053824;28;20043;-55
2022/12/18 02:53:45;;;;;;;16.50;7.97;;;-3.10;64.20;;;;;;5040050;28;20049;-53
2022/12/18 02:56:23;;;;;;;18.73;10.68;;;-3.10;64.20;;;;;;5062215;28;20045;-55
2022/12/18 02:59:15;;;;;;;16.03;8.13;;;-3.10;64.10;;;;;;5048519;28;20041;-51
2022/12/18 03:02:07;;;;;;;17.35;9.50;;;-3.10;64.00;;;;;;5029543;28;20736;-55
2022/12/18 03:04:44;;;;;;;18.63;11.10;;;-3.20;64.00;;;;;;5041954;28;20060;-51
2022/12/18 03:07:18;;;;;;;19.35;10.55;;;-3.20;64.20;;;;;;5051745;28;20041;-53
2022/12/18 03:09:50;;;;;;;18.35;10.07;;;-3.20;64.40;;;;;;5040674;28;20041;-50
2022/12/18 03:12:37;;;;;;;20.15;11.45;;;-3.20;64.50;;;;;;5048389;28;20051;-53
2022/12/18 03:15:19;;;;;;;21.10;11.07;;;-3.20;64.50;;;;;;5052987;28;20090;-53
2022/12/18 03:18:01;;;;;;;18.75;10.80;;;-3.20;64.50;;;;;;5036305;28;20059;-52
2022/12/18 03:20:34;;;;;;;20.73;10.07;;;-3.20;64.60;;;;;;5031190;28;20056;-53
2022/12/18 03:23:11;;;;;;;15.80;9.52;;;-3.20;64.60;;;;;;5052861;28;20116;-52
2022/12/18 03:25:46;;;;;;;18.17;10.07;;;-3.10;64.70;;;;;;5031360;28;20414;-52
2022/12/18 03:28:18;;;;;;;19.02;9.85;;;-3.10;64.70;;;;;;5047611;28;20440;-55
2022/12/18 03:30:56;;;;;;;20.42;10.45;;;-3.10;64.80;;;;;;5060215;28;20143;-52
2022/12/18 03:33:54;;;;;;;19.33;10.82;;;-3.10;64.90;;;;;;5055652;28;20044;-53
2022/12/18 03:36:27;;;;;;;16.08;9.32;;;-3.10;65.00;;;;;;5021785;28;20037;-53
2022/12/18 03:38:54;;;;;;;20.30;11.25;;;-3.10;65.00;;;;;;5029201;28;20541;-52
2022/12/18 03:41:33;;;;;;;17.88;9.73;;;-3.10;65.10;;;;;;5041554;28;20033;-52
2022/12/18 03:44:33;;;;;;;20.38;10.90;;;-3.10;65.40;;;;;;5013821;28;20127;-53
2022/12/18 03:47:31;;;;;;;19.20;10.95;;;-3.00;65.50;;;;;;5044010;28;20433;-53
2022/12/18 03:50:17;;;;;;;20.98;10.70;;;-3.00;65.60;;;;;;5056443;28;20033;-50
2022/12/18 03:52:52;;;;;;;20.23;10.40;;;-3.00;65.50;;;;;;5050077;28;20128;-53
2022/12/18 03:55:22;;;;;;;17.55;10.02;;;-3.00;65.40;;;;;;5047279;28;20047;-53
2022/12/18 03:57:56;;;;;;;18.27;9.02;;;-3.00;65.30;;;;;;5029006;28;20057;-53
2022/12/18 04:00:28;;;;;;;18.88;10.63;;;-2.90;65.30;;;;;;5030785;28;20045;-53
2022/12/18 04:03:05;;;;;;;19.63;11.23;;;-2.90;65.20;;;;;;5036425;28;20144;-53
2022/12/18 04:05:42;;;;;;;19.67;10.40;;;-2.90;65.20;;;;;;5030143;28;20467;-53
2022/12/18 04:08:12;;;;;;;18.40;10.35;;;-2.90;65.20;;;;;;5057916;28;20036;-50
2022/12/18 04:10:45;;;;;;;19.52;10.13;;;-2.80;65.20;;;;;;5044925;28;20098;-50
2022/12/18 04:13:29;;;;;;;14.40;7.63;;;-2.90;65.00;;;;;;5053691;28;20050;-54
2022/12/18 04:15:58;;;;;;;18.40;9.90;;;-2.90;65.00;;;;;;5025546;28;20069;-52
2022/12/18 04:18:26;;;;;;;21.60;11.70;;;-2.90;65.00;;;;;;5048573;28;20056;-51
2022/12/18 04:20:53;;;;;;;19.10;10.85;;;-2.90;65.10;;;;;;5048411;28;20059;-53
2022/12/18 04:23:22;;;;;;;18.85;10.25;;;-2.90;65.30;;;;;;5039759;28;20045;-53
2022/12/18 04:25:49;;;;;;;20.65;11.15;;;-2.90;65.30;;;;;;5050805;28;20099;-50
2022/12/18 04:28:32;;;;;;;35.63;13.47;;;-2.90;65.30;;;;;;5046760;28;20041;-53
2022/12/18 04:30:59;;;;;;;22.77;11.32;;;-2.90;65.50;;;;;;5028260;28;20042;-51
2022/12/18 04:33:26;;;;;;;19.50;10.65;;;-2.90;65.90;;;;;;5016015;28;20049;-53
2022/12/18 04:35:53;;;;;;;22.08;12.10;;;-2.90;65.80;;;;;;5032615;28;20043;-50
2022/12/18 04:38:20;;;;;;;22.42;11.63;;;-2.90;65.70;;;;;;5044189;28;20068;-51
2022/12/18 04:40:52;;;;;;;16.10;10.68;;;-2.80;65.60;;;;;;5034593;28;20487;-51
2022/12/18 04:43:27;;;;;;;19.63;11.15;;;-2.80;65.60;;;;;;5047778;28;20041;-51
2022/12/18 04:46:00;;;;;;;22.40;13.02;;;-2.80;65.50;;;;;;5052814;28;20107;-50
2022/12/18 04:48:27;;;;;;;23.17;13.23;;;-2.80;65.60;;;;;;5049678;28;20037;-53
2022/12/18 04:50:56;;;;;;;25.52;12.23;;;-2.80;65.60;;;;;;5049600;28;20407;-50
2022/12/18 04:53:25;;;;;;;17.40;10.32;;;-2.80;65.70;;;;;;5031944;28;20577;-50
2022/12/18 04:56:03;;;;;;;19.55;12.02;;;-2.80;65.70;;;;;;5057246;28;20179;-54
2022/12/18 04:58:30;;;;;;;20.55;12.07;;;-2.80;65.80;;;;;;5053974;28;20110;-52
2022/12/18 05:01:09;;;;;;;18.33;11.85;;;-2.80;65.80;;;;;;5057907;28;20112;-50
2022/12/18 05:03:39;;;;;;;19.92;12.93;;;-2.70;65.80;;;;;;5052807;28;20063;-52
2022/12/18 05:06:09;;;;;;;23.05;12.00;;;-2.70;65.90;;;;;;5060603;28;20044;-49
2022/12/18 05:08:37;;;;;;;16.25;10.13;;;-2.70;66.00;;;;;;5069245;28;20044;-53
2022/12/18 05:11:05;;;;;;;23.52;12.35;;;-2.70;66.00;;;;;;5053911;28;20045;-51
2022/12/18 05:13:32;;;;;;;20.05;11.68;;;-2.70;66.00;;;;;;5049956;28;20060;-51
2022/12/18 05:15:59;;;;;;;20.45;12.77;;;-2.70;66.10;;;;;;5057596;28;20049;-53
2022/12/18 05:18:30;;;;;;;26.30;13.57;;;-2.70;66.10;;;;;;5069962;28;20055;-53
2022/12/18 05:20:57;;;;;;;24.15;12.45;;;-2.60;66.10;;;;;;5053023;28;20598;-53
2022/12/18 05:23:29;;;;;;;22.75;12.15;;;-2.60;66.00;;;;;;5043273;28;20417;-53
2022/12/18 05:26:01;;;;;;;22.92;10.63;;;-2.60;65.90;;;;;;5049345;28;20052;-53
2022/12/18 05:28:30;;;;;;;21.75;11.38;;;-2.60;65.80;;;;;;5048999;28;20037;-51
2022/12/18 05:31:00;;;;;;;25.48;14.27;;;-2.60;65.60;;;;;;5045055;28;20049;-52
2022/12/18 05:33:30;;;;;;;22.60;12.90;;;-2.60;65.70;;;;;;5051530;28;20612;-53
2022/12/18 05:35:59;;;;;;;21.95;12.20;;;-2.50;65.60;;;;;;5051605;28;20094;-53
2022/12/18 05:38:28;;;;;;;20.77;11.77;;;-2.60;65.50;;;;;;5047889;28;20098;-53
2022/12/18 05:40:59;;;;;;;19.58;12.23;;;-2.60;65.50;;;;;;5061013;28;20107;-52
2022/12/18 05:43:27;;;;;;;21.38;12.27;;;-2.60;65.40;;;;;;5054070;28;20047;-53
2022/12/18 05:45:55;;;;;;;23.73;11.65;;;-2.60;65.40;;;;;;5048753;28;20046;-51
2022/12/18 05:48:25;;;;;;;21.48;12.27;;;-2.60;65.30;;;;;;5058229;28;20115;-53
2022/12/18 05:50:52;;;;;;;22.80;12.18;;;-2.70;65.30;;;;;;5054184;28;20464;-52
2022/12/18 05:53:21;;;;;;;26.58;15.77;;;-2.70;65.30;;;;;;5062115;28;20060;-53
2022/12/18 05:55:48;;;;;;;20.55;11.50;;;-2.70;65.50;;;;;;5046697;28;20048;-51
2022/12/18 05:58:16;;;;;;;23.30;11.55;;;-2.70;65.50;;;;;;5060382;28;20053;-54
2022/12/18 06:00:45;;;;;;;24.48;13.43;;;-2.70;65.50;;;;;;5062851;28;20509;-51
2022/12/18 06:03:13;;;;;;;22.63;11.90;;;-2.60;65.50;;;;;;5072607;28;20044;-53
2022/12/18 06:05:43;;;;;;;20.27;11.95;;;-2.70;65.50;;;;;;5062076;28;20053;-54
2022/12/18 06:08:15;;;;;;;23.05;13.18;;;-2.70;65.50;;;;;;5061111;28;20049;-51
2022/12/18 06:10:49;;;;;;;24.60;12.45;;;-2.70;65.70;;;;;;5052435;28;20053;-53
2022/12/18 06:13:18;;;;;;;23.85;12.65;;;-2.70;65.80;;;;;;5047542;28;20037;-52
2022/12/18 06:15:45;;;;;;;23.77;14.13;;;-2.70;66.10;;;;;;5043155;28;20524;-49
2022/12/18 06:18:12;;;;;;;21.65;11.88;;;-2.70;66.20;;;;;;5028953;28;20084;-49
2022/12/18 06:20:41;;;;;;;24.10;13.63;;;-2.60;66.90;;;;;;5046307;28;20413;-52
2022/12/18 06:23:09;;;;;;;26.05;15.40;;;-2.60;66.20;;;;;;5043298;28;20053;-49
2022/12/18 06:25:38;;;;;;;21.42;13.32;;;-2.60;66.30;;;;;;5033671;28;20049;-51
2022/12/18 06:28:07;;;;;;;25.45;13.45;;;-2.60;66.50;;;;;;5047183;28;20049;-52
2022/12/18 06:30:34;;;;;;;29.00;15.35;;;-2.60;66.70;;;;;;5053409;28;20106;-49
2022/12/18 06:33:00;;;;;;;25.50;13.18;;;-2.50;66.80;;;;;;5058248;28;20389;-51
2022/12/18 06:35:29;;;;;;;25.58;14.35;;;-2.50;66.90;;;;;;5045821;28;20076;-50
2022/12/18 06:38:01;;;;;;;20.52;12.95;;;-2.50;66.90;;;;;;5050803;28;20052;-52
2022/12/18 06:40:28;;;;;;;23.08;12.80;;;-2.50;66.90;;;;;;5056471;28;20048;-53
2022/12/18 06:42:54;;;;;;;23.85;12.90;;;-2.40;66.80;;;;;;5056284;28;20477;-49
2022/12/18 06:45:25;;;;;;;22.60;13.30;;;-2.40;66.80;;;;;;5048612;28;20053;-49
2022/12/18 06:47:53;;;;;;;23.23;12.93;;;-2.40;66.80;;;;;;5064881;28;20404;-50
2022/12/18 06:50:22;;;;;;;23.70;14.18;;;-2.40;66.80;;;;;;5046970;28;20107;-53
2022/12/18 06:52:48;;;;;;;20.15;12.43;;;-2.40;66.80;;;;;;5053302;28;20494;-52
2022/12/18 06:55:20;;;;;;;21.40;13.13;;;-2.40;67.50;;;;;;5055057;28;20520;-52
2022/12/18 06:57:49;;;;;;;22.95;12.95;;;-2.30;66.80;;;;;;5068510;28;20063;-48
2022/12/18 07:00:18;;;;;;;24.40;13.57;;;-2.30;66.80;;;;;;5045211;28;20041;-51
2022/12/18 07:02:47;;;;;;;23.70;12.75;;;-2.30;66.80;;;;;;5055281;28;20041;-52
2022/12/18 07:05:14;;;;;;;28.00;13.65;;;-2.30;66.80;;;;;;5030647;28;20536;-52
2022/12/18 07:07:41;;;;;;;21.67;12.57;;;-2.30;66.80;;;;;;5059875;28;20039;-52
2022/12/18 07:10:09;;;;;;;21.48;12.95;;;-2.30;66.80;;;;;;5022669;28;20055;-53
2022/12/18 07:12:38;;;;;;;23.48;12.75;;;-2.30;66.80;;;;;;5036922;28;20049;-52
2022/12/18 07:15:05;;;;;;;29.00;13.93;;;-2.30;66.80;;;;;;5056237;28;20090;-52
2022/12/18 07:17:37;;;;;;;22.50;12.55;;;-2.30;66.70;;;;;;5064367;28;20072;-53
2022/12/18 07:20:06;;;;;;;20.20;12.90;;;-2.30;66.80;;;;;;5050859;28;20037;-53
2022/12/18 07:22:33;;;;;;;25.30;14.25;;;-2.30;66.80;;;;;;5049624;28;20049;-54
2022/12/18 07:24:59;;;;;;;23.20;14.07;;;-2.30;66.80;;;;;;5052416;28;20124;-56
2022/12/18 07:27:26;;;;;;;21.13;14.15;;;-2.30;66.80;;;;;;5060456;28;20040;-52
2022/12/18 07:29:53;;;;;;;21.83;12.02;;;-2.20;66.90;;;;;;5051753;28;20505;-53
2022/12/18 07:32:22;;;;;;;22.23;13.25;;;-2.20;66.80;;;;;;5057246;28;20083;-53
2022/12/18 07:34:48;;;;;;;22.65;12.88;;;-2.20;66.80;;;;;;5058723;28;20502;-59
2022/12/18 07:37:17;;;;;;;22.85;13.40;;;-2.20;66.90;;;;;;5050639;28;20037;-58
2022/12/18 07:39:48;;;;;;;20.50;11.47;;;-2.20;66.80;;;;;;5041481;28;20040;-59
2022/12/18 07:42:33;;;;;;;26.88;15.35;;;-2.20;66.80;;;;;;5049934;28;20116;-59
2022/12/18 07:45:00;;;;;;;31.98;17.27;;;-2.20;66.70;;;;;;5054564;28;20037;-60
2022/12/18 07:47:28;;;;;;;29.27;17.33;;;-2.20;66.70;;;;;;5052778;28;20041;-58
2022/12/18 07:49:59;;;;;;;29.90;17.55;;;-2.20;66.80;;;;;;5058848;28;20072;-59
2022/12/18 07:52:29;;;;;;;26.25;16.05;;;-2.20;66.90;;;;;;5067973;28;20051;-60
2022/12/18 07:54:58;;;;;;;25.85;15.45;;;-2.20;67.00;;;;;;5037480;28;20056;-59
2022/12/18 07:57:25;;;;;;;24.10;15.18;;;-2.20;67.00;;;;;;5048300;28;20814;-59
2022/12/18 08:00:12;;;;;;;24.35;14.93;;;-2.20;67.10;;;;;;5039890;28;20123;-59
2022/12/18 08:02:39;;;;;;;27.63;16.20;;;-2.20;67.00;;;;;;5052193;28;20041;-59
2022/12/18 08:05:06;;;;;;;25.35;15.45;;;-2.10;67.20;;;;;;5053049;28;20048;-60
2022/12/18 08:07:32;;;;;;;23.77;15.90;;;-2.10;67.20;;;;;;5044122;28;20121;-60
2022/12/18 08:09:59;;;;;;;28.45;15.30;;;-2.10;67.20;;;;;;5047205;28;20052;-60
2022/12/18 08:12:26;;;;;;;26.10;15.82;;;-2.00;67.30;;;;;;5044044;28;20033;-59
2022/12/18 08:14:52;;;;;;;34.67;16.95;;;-2.00;67.30;;;;;;5055702;28;20066;-58
2022/12/18 08:17:20;;;;;;;27.95;14.55;;;-2.00;67.30;;;;;;5058052;28;20025;-60
2022/12/18 08:19:46;;;;;;;24.42;14.75;;;-2.00;67.40;;;;;;5042243;28;20047;-60
2022/12/18 08:22:13;;;;;;;25.88;14.70;;;-1.90;67.50;;;;;;5055006;28;20510;-58
2022/12/18 08:24:39;;;;;;;23.30;14.35;;;-1.90;67.60;;;;;;5043799;28;20045;-60
2022/12/18 08:27:06;;;;;;;23.05;15.32;;;-1.80;67.60;;;;;;5054559;28;20476;-60
2022/12/18 08:29:53;;;;;;;25.35;15.38;;;-1.80;67.70;;;;;;5060386;28;20444;-60
2022/12/18 08:32:19;;;;;;;29.02;16.13;;;-1.70;67.70;;;;;;5047638;28;20378;-60
2022/12/18 08:34:46;;;;;;;24.02;15.05;;;-1.70;67.70;;;;;;5052399;28;20053;-60
2022/12/18 08:37:13;;;;;;;26.58;15.43;;;-1.70;67.70;;;;;;5045077;28;20052;-60
2022/12/18 08:39:39;;;;;;;29.63;17.08;;;-1.60;67.80;;;;;;5048851;28;20400;-60
2022/12/18 08:44:51;;;;;;;46.83;26.13;;;-1.50;67.80;;;;;;5048440;28;20045;-60
2022/12/18 08:47:19;;;;;;;38.03;21.15;;;-1.40;67.80;;;;;;5042886;28;20088;-60
2022/12/18 08:49:46;;;;;;;30.45;18.60;;;-1.40;67.70;;;;;;5057422;28;20471;-59
2022/12/18 08:52:13;;;;;;;30.17;17.92;;;-1.40;67.60;;;;;;5061018;28;20610;-60
2022/12/18 08:54:39;;;;;;;57.17;33.35;;;-1.30;67.70;;;;;;5044724;28;20046;-60
2022/12/18 08:57:06;;;;;;;54.70;29.00;;;-1.30;67.60;;;;;;5022052;28;20056;-60
2022/12/18 08:59:33;;;;;;;35.30;23.30;;;-1.20;67.60;;;;;;5056315;28;20584;-60
2022/12/18 09:01:59;;;;;;;28.77;19.63;;;-1.20;67.60;;;;;;5037078;28;20041;-60
2022/12/18 09:04:27;;;;;;;25.58;16.30;;;-1.00;67.70;;;;;;5052832;28;20037;-60
2022/12/18 09:06:55;;;;;;;27.60;17.17;;;-1.10;67.60;;;;;;5061468;28;20501;-60
2022/12/18 09:09:21;;;;;;;26.33;16.25;;;-1.10;67.60;;;;;;5052528;28;20045;-60
2022/12/18 09:11:48;;;;;;;31.30;17.60;;;-1.00;67.60;;;;;;5054510;28;20041;-60
2022/12/18 09:14:15;;;;;;;26.67;17.00;;;-1.00;67.70;;;;;;5054103;28;20068;-60
2022/12/18 09:16:42;;;;;;;27.60;15.90;;;-0.90;67.70;;;;;;5040393;28;20044;-60
2022/12/18 09:19:09;;;;;;;28.05;18.10;;;-0.90;67.70;;;;;;5043532;28;20047;-60
2022/12/18 09:21:38;;;;;;;29.58;16.33;;;-0.80;67.80;;;;;;5038045;28;20098;-60
2022/12/18 09:24:13;;;;;;;43.05;22.35;;;-0.70;67.90;;;;;;5040588;28;20472;-60
2022/12/18 09:26:40;;;;;;;105.45;42.92;;;-0.70;67.80;;;;;;5051996;28;20049;-60
2022/12/18 09:29:09;;;;;;;86.43;39.15;;;-0.60;67.80;;;;;;5051875;28;20037;-60
2022/12/18 09:31:36;;;;;;;50.35;29.38;;;-0.60;67.80;;;;;;5053815;28;20051;-60
2022/12/18 09:34:03;;;;;;;36.88;21.63;;;-0.50;67.80;;;;;;5057007;28;20068;-60
2022/12/18 09:36:29;;;;;;;30.33;16.52;;;-0.40;67.90;;;;;;5051639;28;20036;-60
2022/12/18 09:38:56;;;;;;;27.58;16.33;;;-0.40;67.90;;;;;;5062205;28;20119;-59
2022/12/18 09:41:44;;;;;;;26.40;15.32;;;-0.30;68.00;;;;;;5066001;28;20044;-60
2022/12/18 09:44:18;;;;;;;24.85;14.93;;;-0.20;68.00;;;;;;5035022;28;20057;-60
2022/12/18 09:47:12;;;;;;;28.10;17.25;;;-0.20;67.90;;;;;;5060943;28;20056;-59
2022/12/18 09:49:43;;;;;;;23.67;14.70;;;-0.10;67.90;;;;;;5020948;28;20055;-61
2022/12/18 09:52:19;;;;;;;25.45;15.30;;;0.00;67.80;;;;;;5038004;28;20111;-61
2022/12/18 09:55:05;;;;;;;26.55;14.52;;;0.00;67.70;;;;;;5046493;28;20051;-61
2022/12/18 09:57:35;;;;;;;22.92;14.00;;;0.10;67.70;;;;;;5047385;28;20087;-61
2022/12/18 10:00:16;;;;;;;22.15;14.43;;;0.20;67.70;;;;;;5063965;28;20048;-60
2022/12/18 10:02:42;;;;;;;27.08;15.38;;;0.20;67.80;;;;;;5052163;28;20408;-60
2022/12/18 10:05:16;;;;;;;27.83;16.67;;;0.30;67.70;;;;;;5062149;28;20056;-60
2022/12/18 10:08:01;;;;;;;27.95;15.90;;;0.40;67.60;;;;;;5063864;28;20073;-60
2022/12/18 10:10:33;;;;;;;27.38;15.57;;;0.40;67.60;;;;;;5069626;28;20040;-60
2022/12/18 10:13:56;;;;;;;30.65;19.63;;;0.50;67.40;;;;;;5045240;28;20120;-60
2022/12/18 10:16:46;;;;;;;;;;;0.60;67.50;;;;;;4959893;28;20046;-60
2022/12/18 10:19:39;;;;;;;45.78;26.33;;;0.70;67.70;;;;;;4965601;28;19933;-60
2022/12/18 10:22:35;;;;;;;33.95;17.80;;;0.70;67.10;;;;;;5046497;28;20064;-60
2022/12/18 10:25:05;;;;;;;27.17;16.65;;;0.80;67.10;;;;;;5061533;28;20056;-60
2022/12/18 10:27:32;;;;;;;32.03;17.90;;;0.80;66.90;;;;;;5053215;28;20102;-60
2022/12/18 10:30:00;;;;;;;30.17;18.45;;;0.90;67.00;;;;;;5045771;28;20203;-60
2022/12/18 10:32:30;;;;;;;30.77;18.35;;;0.90;67.00;;;;;;5056405;28;20055;-60
2022/12/18 10:34:57;;;;;;;27.92;17.95;;;1.00;67.10;;;;;;5064732;28;20464;-60
2022/12/18 10:37:29;;;;;;;29.90;18.95;;;1.10;67.10;;;;;;5048984;28;20414;-60
2022/12/18 10:40:11;;;;;;;29.60;18.55;;;1.10;67.00;;;;;;5037107;28;20052;-60
2022/12/18 10:42:44;;;;;;;37.40;20.17;;;1.20;67.00;;;;;;5043925;28;20139;-60
2022/12/18 10:45:12;;;;;;;35.00;18.92;;;1.20;66.90;;;;;;5070381;28;20047;-60
2022/12/18 10:47:48;;;;;;;29.20;17.52;;;1.30;66.90;;;;;;5072911;28;20049;-60
2022/12/18 10:50:29;;;;;;;24.42;14.88;;;1.40;66.90;;;;;;5054417;28;20157;-60
2022/12/18 10:53:24;;;;;;;23.98;15.02;;;1.40;66.90;;;;;;5059714;28;20045;-60
2022/12/18 10:55:53;;;;;;;24.92;15.38;;;1.50;66.80;;;;;;5045095;28;20041;-60
2022/12/18 10:58:33;;;;;;;26.02;15.57;;;1.50;66.70;;;;;;5058823;28;20116;-60
2022/12/18 11:01:13;;;;;;;25.90;16.25;;;1.60;66.70;;;;;;5052142;28;20037;-60
2022/12/18 11:03:41;;;;;;;24.15;15.40;;;1.70;66.70;;;;;;5060663;28;20037;-60
2022/12/18 11:06:11;;;;;;;26.30;17.38;;;1.70;66.70;;;;;;5065826;28;20036;-60
2022/12/18 11:08:39;;;;;;;34.80;20.45;;;1.80;66.60;;;;;;5048232;28;20041;-61
2022/12/18 11:11:23;;;;;;;39.13;22.85;;;1.80;66.50;;;;;;5063822;28;20049;-60
2022/12/18 11:13:59;;;;;;;30.38;18.73;;;1.80;66.30;;;;;;5039006;28;20055;-60
2022/12/18 11:16:27;;;;;;;30.88;21.25;;;1.90;66.40;;;;;;5050955;28;20044;-60
2022/12/18 11:19:21;;;;;;;34.30;18.38;;;1.90;66.30;;;;;;5051620;28;20071;-60
2022/12/18 11:21:48;;;;;;;30.90;19.50;;;2.00;66.20;;;;;;5043869;28;20053;-60
2022/12/18 11:24:29;;;;;;;27.60;17.75;;;2.00;66.20;;;;;;5055368;28;20064;-60
2022/12/18 11:27:00;;;;;;;32.35;19.98;;;2.10;66.00;;;;;;5042587;28;20117;-60
2022/12/18 11:29:39;;;;;;;26.10;17.65;;;2.20;66.10;;;;;;5052997;28;20055;-60
2022/12/18 11:32:15;;;;;;;30.70;17.40;;;2.20;66.10;;;;;;5043964;28;20071;-60
2022/12/18 11:34:47;;;;;;;27.58;16.75;;;2.20;66.00;;;;;;5058344;28;20036;-60
2022/12/18 11:37:19;;;;;;;23.02;15.73;;;2.30;66.00;;;;;;5062042;28;20527;-60
2022/12/18 11:39:54;;;;;;;24.00;17.40;;;2.30;66.00;;;;;;5056757;28;20513;-60
2022/12/18 11:42:44;;;;;;;31.38;19.10;;;2.40;66.00;;;;;;5048716;28;20049;-60
2022/12/18 11:45:11;;;;;;;24.88;16.90;;;2.40;65.90;;;;;;5048779;28;20041;-60
2022/12/18 11:47:58;;;;;;;34.03;18.77;;;2.50;65.90;;;;;;5058771;28;20494;-60
2022/12/18 11:50:46;;;;;;;31.85;18.27;;;2.50;65.70;;;;;;5050261;28;20490;-60
2022/12/18 11:53:13;;;;;;;28.75;16.73;;;2.60;65.70;;;;;;5047067;28;20394;-60
2022/12/18 11:55:58;;;;;;;23.75;15.25;;;2.60;65.60;;;;;;5052474;28;20485;-60
2022/12/18 11:58:58;;;;;;;33.05;18.73;;;2.70;65.50;;;;;;5055688;28;20046;-60
2022/12/18 12:01:55;;;;;;;26.80;16.65;;;2.70;65.20;;;;;;5058904;28;20119;-61
2022/12/18 12:04:46;;;;;;;30.05;17.95;;;2.70;64.90;;;;;;5062550;28;20047;-60
2022/12/18 12:07:32;;;;;;;29.48;18.23;;;2.80;64.80;;;;;;5056011;28;20048;-60
2022/12/18 12:10:18;;;;;;;40.30;21.13;;;2.80;64.70;;;;;;5037641;28;20053;-60
2022/12/18 12:13:00;;;;;;;27.73;17.10;;;2.90;64.80;;;;;;5051190;28;20064;-60
2022/12/18 12:15:35;;;;;;;28.58;17.08;;;2.90;64.60;;;;;;5055884;28;20499;-60
2022/12/18 12:18:20;;;;;;;25.35;15.98;;;2.90;64.80;;;;;;5060814;28;20033;-60
2022/12/18 12:20:53;;;;;;;26.77;15.40;;;2.90;64.70;;;;;;5055778;28;20105;-61
2022/12/18 12:23:28;;;;;;;28.98;16.88;;;3.00;64.70;;;;;;5045846;28;20049;-60
2022/12/18 12:26:00;;;;;;;24.63;15.48;;;3.00;64.60;;;;;;5060240;28;20055;-60
2022/12/18 12:28:47;;;;;;;19.63;13.02;;;3.00;64.60;;;;;;5047062;28;20468;-59
2022/12/18 12:31:35;;;;;;;30.40;16.63;;;3.00;64.40;;;;;;5051071;28;20055;-60
2022/12/18 12:34:24;;;;;;;27.65;16.70;;;3.00;64.20;;;;;;5046805;28;20561;-60
2022/12/18 12:37:15;;;;;;;25.67;15.55;;;3.10;64.20;;;;;;5062061;28;20090;-60
2022/12/18 12:39:44;;;;;;;25.55;16.42;;;3.10;63.80;;;;;;5070933;28;20102;-60
2022/12/18 12:45:23;;;;;;;26.38;15.02;;;3.20;64.10;;;;;;5056099;28;20036;-61
2022/12/18 12:47:51;;;;;;;22.67;13.98;;;3.20;63.90;;;;;;5062146;28;20397;-60
2022/12/18 12:50:21;;;;;;;30.05;15.10;;;3.20;64.00;;;;;;5065218;28;20555;-60
2022/12/18 12:52:55;;;;;;;27.80;15.20;;;3.30;63.90;;;;;;5052813;28;20042;-61
2022/12/18 12:55:26;;;;;;;24.08;14.20;;;3.30;63.80;;;;;;5051662;28;20039;-60
2022/12/18 12:58:08;;;;;;;24.85;15.80;;;3.30;63.70;;;;;;5060996;28;20493;-60
2022/12/18 13:00:50;;;;;;;23.20;15.07;;;3.30;63.70;;;;;;5047018;28;20041;-60
2022/12/18 13:03:48;;;;;;;33.83;21.08;;;3.40;63.50;;;;;;5064649;28;20048;-60
2022/12/18 13:06:50;;;;;;;32.80;19.58;;;3.40;63.00;;;;;;5040934;28;20060;-60
2022/12/18 13:09:17;;;;;;;28.17;17.25;;;3.40;62.80;;;;;;5021228;28;20505;-60
2022/12/18 13:14:38;;;;;;;30.15;18.77;;;3.40;63.20;;;;;;5044590;28;20036;-60